Philip, South Dakota
Current Conditions -  °F | °C
As of 4:55 AM on Monday 26 Jan 2015 (Local Time) from KPHP Reporting Station
Clear Clear  
Wind Chill: 38°   Ceiling: Unl
Heat Index: 44°   Visibility: 10mi
Dew Point: 31°   Wind: 13mph
Humidity: 60%   Direction: 290°WNW
Pressure: 29.94"   Gusts: NA
Location:  44.04°N, 101.67°W
Report Text: KPHP 261155Z AUTO 29011KT 10SM CLR 07/M01 A2994 RMK AO2 SLP144 T00671006 10072 20011 53009
Loading
Personal Weather Stations






























Interactive Weather Map New forecast layout! Learn more

10-Day Weather Forecast

Advertisements
Track Severe Weather on mobile